Time;durP1;ratioP1;P1;durP2;ratioP2;P2;SDS_P1;SDS_P2;PMS_P1;PMS_P2;Temp;Humidity;BMP_temperature;BMP_pressure;BME280_temperature;BME280_humidity;BME280_pressure;Samples;Min_cycle;Max_cycle;Signal;HPM_P1;HPM_P2
2023/05/15 00:00:32;;;;;;;;;;;;;;;12.64;54.53;97174.13;110170;1243;59764;-76
2023/05/15 00:03:24;;;;;;;;;;;;;;;12.60;54.88;97167.67;110136;1242;59747;-75
2023/05/15 00:05:55;;;;;;;;;;;;;;;12.55;54.86;97159.34;110205;1243;70719;-75
2023/05/15 00:08:25;;;;;;;;;;;;;;;12.53;55.09;97150.61;110199;1242;69829;-76
2023/05/15 00:10:57;;;;;;;;;;;;;;;12.52;55.52;97142.98;110143;1242;68686;-75
2023/05/15 00:13:30;;;;;;;;;;;;;;;12.49;55.33;97137.79;110190;1242;59684;-75
2023/05/15 00:16:00;;;;;;;;;;;;;;;12.46;55.43;97138.02;110198;1242;59728;-75
2023/05/15 00:18:30;;;;;;;;;;;;;;;12.42;55.33;97136.44;110229;1244;71881;-76
2023/05/15 00:21:00;;;;;;;;;;;;;;;12.39;55.38;97137.65;110213;1243;69295;-76
2023/05/15 00:23:30;;;;;;;;;;;;;;;12.34;55.81;97136.84;110225;1242;69291;-76
2023/05/15 00:26:01;;;;;;;;;;;;;;;12.30;55.35;97136.98;110214;1244;59751;-75
2023/05/15 00:28:32;;;;;;;;;;;;;;;12.26;55.80;97133.65;110231;1243;59630;-74
2023/05/15 00:31:04;;;;;;;;;;;;;;;12.22;55.54;97133.58;110227;1242;71441;-76
2023/05/15 00:33:34;;;;;;;;;;;;;;;12.20;56.56;97138.50;110152;1243;68474;-76
2023/05/15 00:36:07;;;;;;;;;;;;;;;12.16;57.01;97142.34;110180;1242;68722;-76
2023/05/15 00:38:37;;;;;;;;;;;;;;;12.13;56.73;97144.66;110199;1241;59728;-74
2023/05/15 00:41:10;;;;;;;;;;;;;;;12.15;56.47;97141.90;110196;1240;59664;-75
2023/05/15 00:43:41;;;;;;;;;;;;;;;12.14;56.44;97140.05;110221;1243;71515;-76
2023/05/15 00:46:13;;;;;;;;;;;;;;;12.13;56.71;97146.84;110244;1246;69230;-75
2023/05/15 00:48:44;;;;;;;;;;;;;;;12.12;57.08;97146.85;110175;1245;69436;-75
2023/05/15 00:51:15;;;;;;;;;;;;;;;12.19;57.25;97145.08;110169;1245;59681;-76
2023/05/15 00:53:45;;;;;;;;;;;;;;;12.22;56.86;97143.45;110205;1242;59754;-77
2023/05/15 00:56:16;;;;;;;;;;;;;;;12.26;56.85;97140.48;110264;1242;70488;-75
2023/05/15 00:58:48;;;;;;;;;;;;;;;12.33;56.83;97140.80;110161;1241;69669;-77
2023/05/15 01:01:20;;;;;;;;;;;;;;;12.37;56.37;97137.95;110182;1246;68554;-76
2023/05/15 01:03:50;;;;;;;;;;;;;;;12.44;56.31;97140.36;110152;1243;59699;-75
2023/05/15 01:06:21;;;;;;;;;;;;;;;12.49;55.98;97139.93;110166;1242;59678;-76
2023/05/15 01:08:52;;;;;;;;;;;;;;;12.53;55.86;97129.29;110173;1250;70664;-76
2023/05/15 01:11:24;;;;;;;;;;;;;;;12.52;56.09;97121.45;110177;1251;69268;-74
2023/05/15 01:13:54;;;;;;;;;;;;;;;12.50;56.13;97117.79;110287;1242;69132;-75
2023/05/15 01:16:24;;;;;;;;;;;;;;;12.48;56.18;97111.89;110254;1244;59743;-76
2023/05/15 01:18:56;;;;;;;;;;;;;;;12.42;56.18;97113.63;110177;1242;59667;-76
2023/05/15 01:21:27;;;;;;;;;;;;;;;12.37;56.12;97114.87;110128;1249;71412;-76
2023/05/15 01:23:58;;;;;;;;;;;;;;;12.32;56.25;97111.31;110210;1247;68563;-75
2023/05/15 01:26:48;;;;;;;;;;;;;;;12.24;56.99;97111.05;110175;1242;69152;-75
2023/05/15 01:29:21;;;;;;;;;;;;;;;12.15;56.81;97109.97;110210;1242;59700;-77
2023/05/15 01:31:56;;;;;;;;;;;;;;;12.04;57.92;97109.65;110195;1245;59684;-77
2023/05/15 01:34:31;;;;;;;;;;;;;;;11.91;60.08;97111.21;110163;1243;70768;-76
2023/05/15 01:37:03;;;;;;;;;;;;;;;11.78;59.39;97107.05;110153;1252;69801;-75
2023/05/15 01:39:34;;;;;;;;;;;;;;;11.68;59.21;97098.45;110235;1242;69427;-75
2023/05/15 01:42:08;;;;;;;;;;;;;;;11.60;59.29;97100.28;110236;1241;59742;-77
2023/05/15 01:44:42;;;;;;;;;;;;;;;11.52;60.74;97097.48;110276;1240;59743;-76
2023/05/15 01:47:19;;;;;;;;;;;;;;;11.42;60.17;97095.11;110309;1249;71337;-76
2023/05/15 01:49:52;;;;;;;;;;;;;;;11.34;60.02;97092.48;110355;1241;68535;-76
2023/05/15 01:52:28;;;;;;;;;;;;;;;11.27;59.73;97092.02;110201;1241;69202;-76
2023/05/15 01:55:00;;;;;;;;;;;;;;;11.22;60.77;97087.70;110211;1241;59746;-75
2023/05/15 01:57:30;;;;;;;;;;;;;;;11.18;60.81;97084.37;110292;1250;59741;-76
2023/05/15 02:00:00;;;;;;;;;;;;;;;11.15;60.47;97076.25;110175;1244;71385;-76
2023/05/15 02:02:31;;;;;;;;;;;;;;;11.10;60.97;97073.14;110172;1243;69050;-76
2023/05/15 02:05:03;;;;;;;;;;;;;;;11.03;62.77;97072.85;110286;1245;68598;-75
2023/05/15 02:07:33;;;;;;;;;;;;;;;10.93;62.69;97074.30;109716;1247;816526;-76
2023/05/15 02:10:05;;;;;;;;;;;;;;;10.83;62.45;97070.23;110254;1242;59682;-76
2023/05/15 02:12:36;;;;;;;;;;;;;;;10.72;62.68;97062.20;110236;1242;71947;-76
2023/05/15 02:15:09;;;;;;;;;;;;;;;10.62;64.14;97063.00;110177;1247;68423;-77
2023/05/15 02:17:40;;;;;;;;;;;;;;;10.54;63.33;97054.73;110249;1241;69778;-77
2023/05/15 02:20:11;;;;;;;;;;;;;;;10.46;62.57;97050.14;110282;1243;59750;-76
2023/05/15 02:22:41;;;;;;;;;;;;;;;10.39;63.97;97044.74;110242;1240;59750;-76
2023/05/15 02:25:13;;;;;;;;;;;;;;;10.34;64.79;97039.61;110208;1242;71262;-75
2023/05/15 02:27:55;;;;;;;;;;;;;;;10.29;65.43;97037.05;110233;1242;68848;-76
2023/05/15 02:30:42;;;;;;;;;;;;;;;10.23;64.98;97036.79;110193;1243;69311;-75
2023/05/15 02:33:24;;;;;;;;;;;;;;;10.15;64.42;97032.15;110238;1242;59743;-74
2023/05/15 02:35:59;;;;;;;;;;;;;;;10.07;64.84;97024.40;110189;1242;60155;-75
2023/05/15 02:38:32;;;;;;;;;;;;;;;10.02;64.04;97021.52;110199;1242;70495;-75
2023/05/15 02:41:05;;;;;;;;;;;;;;;9.98;64.17;97021.44;110155;1242;69232;-74
2023/05/15 02:43:37;;;;;;;;;;;;;;;9.95;64.43;97024.41;110239;1241;69307;-75
2023/05/15 02:46:08;;;;;;;;;;;;;;;9.94;64.58;97021.59;110136;1242;59695;-75
2023/05/15 02:48:40;;;;;;;;;;;;;;;9.94;64.23;97018.79;110217;1242;59634;-75
2023/05/15 02:51:11;;;;;;;;;;;;;;;9.94;63.84;97017.01;110146;1242;71403;-75
2023/05/15 02:53:41;;;;;;;;;;;;;;;9.94;65.42;97015.97;110174;1242;69888;-75
2023/05/15 02:56:11;;;;;;;;;;;;;;;9.95;64.78;97016.83;110138;1245;68528;-76
2023/05/15 02:58:43;;;;;;;;;;;;;;;9.96;65.18;97017.91;110218;1242;59744;-76
2023/05/15 03:01:13;;;;;;;;;;;;;;;9.98;65.35;97023.53;110213;1242;59673;-75
2023/05/15 03:03:42;;;;;;;;;;;;;;;9.98;65.21;97023.88;110222;1243;70356;-75
2023/05/15 03:06:11;;;;;;;;;;;;;;;9.97;64.86;97026.36;110201;1242;68542;-76
2023/05/15 03:08:40;;;;;;;;;;;;;;;9.98;64.89;97031.68;110165;1243;69861;-76
2023/05/15 03:11:11;;;;;;;;;;;;;;;10.00;64.38;97036.27;110205;1240;59666;-76
2023/05/15 03:13:42;;;;;;;;;;;;;;;10.05;63.73;97034.13;110195;1242;59689;-75
2023/05/15 03:16:12;;;;;;;;;;;;;;;10.10;62.74;97029.70;110173;1245;72004;-75
2023/05/15 03:18:42;;;;;;;;;;;;;;;10.19;62.36;97025.75;110164;1242;69612;-76
2023/05/15 03:21:12;;;;;;;;;;;;;;;10.28;61.63;97029.45;110161;1242;69093;-76
2023/05/15 03:23:42;;;;;;;;;;;;;;;10.36;61.17;97024.13;110103;1241;59725;-75
2023/05/15 03:26:11;;;;;;;;;;;;;;;10.45;60.85;97017.30;110178;1242;60203;-75
2023/05/15 03:28:43;;;;;;;;;;;;;;;10.55;61.59;97010.92;110161;1241;71238;-77
2023/05/15 03:31:13;;;;;;;;;;;;;;;10.62;61.73;97008.58;110168;1241;69336;-75
2023/05/15 03:33:44;;;;;;;;;;;;;;;10.69;61.89;97001.96;110199;1242;69771;-76
2023/05/15 03:36:13;;;;;;;;;;;;;;;10.75;62.24;97007.30;110248;1242;59746;-74
2023/05/15 03:38:43;;;;;;;;;;;;;;;10.81;62.29;97008.55;110184;1242;59757;-76
2023/05/15 03:41:12;;;;;;;;;;;;;;;10.88;61.78;97010.63;110191;1242;71478;-76
2023/05/15 03:43:41;;;;;;;;;;;;;;;10.95;61.95;97010.55;110277;1242;69026;-75
2023/05/15 03:46:11;;;;;;;;;;;;;;;11.02;61.57;96997.02;110200;1242;69291;-75
2023/05/15 03:48:42;;;;;;;;;;;;;;;11.10;61.52;96989.60;110149;1242;59703;-76
2023/05/15 03:51:11;;;;;;;;;;;;;;;11.19;60.65;96985.70;110219;1243;59672;-74
2023/05/15 03:53:40;;;;;;;;;;;;;;;11.30;60.81;96984.30;110268;1242;71977;-75
2023/05/15 03:56:09;;;;;;;;;;;;;;;11.41;59.79;96979.23;110259;1243;68468;-75
2023/05/15 03:58:39;;;;;;;;;;;;;;;11.55;59.31;96983.83;110185;1242;69401;-76
2023/05/15 04:01:09;;;;;;;;;;;;;;;11.67;58.40;96981.86;110227;1241;59756;-74
2023/05/15 04:03:39;;;;;;;;;;;;;;;11.81;57.28;96988.45;110259;1241;59708;-76
2023/05/15 04:06:09;;;;;;;;;;;;;;;11.97;58.03;96993.60;110166;1242;70582;-76
2023/05/15 04:08:38;;;;;;;;;;;;;;;12.14;57.66;96994.41;110312;1241;68379;-76
2023/05/15 04:11:10;;;;;;;;;;;;;;;12.32;56.78;96997.20;110217;1241;69248;-77
2023/05/15 04:13:39;;;;;;;;;;;;;;;12.52;56.87;96996.18;110232;1242;59684;-76
2023/05/15 04:16:10;;;;;;;;;;;;;;;12.70;56.39;96992.68;110196;1242;59647;-75
2023/05/15 04:18:40;;;;;;;;;;;;;;;12.85;56.78;96993.42;110161;1242;71320;-75
2023/05/15 04:21:10;;;;;;;;;;;;;;;12.99;56.96;97003.02;110225;1242;69605;-75
2023/05/15 04:23:40;;;;;;;;;;;;;;;13.12;55.50;97010.77;110191;1242;69867;-75
2023/05/15 04:26:10;;;;;;;;;;;;;;;13.22;53.41;97008.32;110142;1244;59753;-75
2023/05/15 04:28:40;;;;;;;;;;;;;;;13.31;53.35;97013.34;110253;1242;59663;-77
2023/05/15 04:31:30;;;;;;;;;;;;;;;13.35;58.04;97016.64;110239;1242;70609;-77
2023/05/15 04:34:00;;;;;;;;;;;;;;;13.36;60.01;97015.69;110221;1249;68687;-76
2023/05/15 04:36:30;;;;;;;;;;;;;;;13.42;60.22;97012.36;110263;1242;68434;-75
2023/05/15 04:38:59;;;;;;;;;;;;;;;13.45;59.28;97011.19;110244;1241;59721;-77
2023/05/15 04:41:29;;;;;;;;;;;;;;;13.47;58.95;97011.30;110161;1242;59741;-76
2023/05/15 04:43:57;;;;;;;;;;;;;;;13.53;59.49;97014.16;110230;1242;71968;-78
2023/05/15 04:46:28;;;;;;;;;;;;;;;13.57;62.92;97017.99;110203;1244;69245;-76
2023/05/15 04:48:58;;;;;;;;;;;;;;;13.58;65.00;97017.05;110191;1242;69294;-76
2023/05/15 04:51:27;;;;;;;;;;;;;;;13.60;64.60;97014.86;110208;1241;59705;-77
2023/05/15 04:53:56;;;;;;;;;;;;;;;13.67;64.46;97015.77;110178;1242;59713;-76
2023/05/15 04:56:25;;;;;;;;;;;;;;;13.75;63.34;97010.88;110250;1242;71493;-76
2023/05/15 04:58:54;;;;;;;;;;;;;;;13.84;61.65;97010.77;110177;1242;69267;-76
2023/05/15 05:01:23;;;;;;;;;;;;;;;13.92;62.09;97015.77;110187;1241;69245;-76
2023/05/15 05:03:52;;;;;;;;;;;;;;;14.02;59.35;97019.98;110156;1242;59670;-77
2023/05/15 05:06:22;;;;;;;;;;;;;;;14.12;56.84;97018.52;110216;1240;59760;-76
2023/05/15 05:08:50;;;;;;;;;;;;;;;14.24;57.15;97016.80;110198;1241;70410;-76
2023/05/15 05:11:20;;;;;;;;;;;;;;;14.37;56.00;97014.91;110194;1242;68779;-77
2023/05/15 05:13:49;;;;;;;;;;;;;;;14.49;55.45;97015.22;110145;1243;69785;-78
2023/05/15 05:16:19;;;;;;;;;;;;;;;14.60;54.24;97009.45;110215;1247;59752;-78
2023/05/15 05:18:47;;;;;;;;;;;;;;;14.70;52.57;97008.68;110215;1241;59734;-77
2023/05/15 05:21:17;;;;;;;;;;;;;;;14.80;53.47;97008.60;110278;1241;71719;-77
2023/05/15 05:23:46;;;;;;;;;;;;;;;14.91;52.84;97008.52;110199;1242;69746;-77
2023/05/15 05:26:15;;;;;;;;;;;;;;;15.05;52.51;97005.11;110179;1240;69074;-76
2023/05/15 05:28:45;;;;;;;;;;;;;;;15.17;50.76;97003.52;110210;1242;59685;-76
2023/05/15 05:31:14;;;;;;;;;;;;;;;15.28;49.05;97002.30;110246;1240;59634;-79
2023/05/15 05:33:43;;;;;;;;;;;;;;;15.37;49.49;97003.17;110272;1240;71857;-76
2023/05/15 05:36:12;;;;;;;;;;;;;;;15.50;50.11;96999.84;110324;1243;69170;-77
2023/05/15 05:38:42;;;;;;;;;;;;;;;15.61;49.12;96995.71;110261;1242;69690;-76
2023/05/15 05:41:10;;;;;;;;;;;;;;;15.71;47.28;96999.70;110229;1242;59700;-76
2023/05/15 05:43:40;;;;;;;;;;;;;;;15.84;47.93;96999.70;110258;1242;59707;-77
2023/05/15 05:46:09;;;;;;;;;;;;;;;15.93;45.07;96995.70;110280;1241;72338;-77
2023/05/15 05:48:39;;;;;;;;;;;;;;;16.03;46.81;96992.86;110156;1245;70157;-77
2023/05/15 05:51:07;;;;;;;;;;;;;;;16.14;45.12;96987.03;110212;1242;70496;-77
2023/05/15 05:53:36;;;;;;;;;;;;;;;16.26;45.41;96985.08;110306;1241;59760;-77
2023/05/15 05:56:07;;;;;;;;;;;;;;;16.37;45.51;96979.59;110349;1242;59724;-77
2023/05/15 05:58:36;;;;;;;;;;;;;;;16.48;44.71;96974.79;110259;1242;72305;-77
2023/05/15 06:01:04;;;;;;;;;;;;;;;16.58;43.99;96972.82;110231;1242;69840;-76
2023/05/15 06:03:34;;;;;;;;;;;;;;;16.65;43.93;96978.95;110210;1242;69969;-78
2023/05/15 06:06:03;;;;;;;;;;;;;;;16.78;43.91;96988.73;110293;1242;60214;-76
2023/05/15 06:08:31;;;;;;;;;;;;;;;16.88;43.32;96987.18;110258;1242;59753;-76
2023/05/15 06:11:00;;;;;;;;;;;;;;;16.96;42.93;96985.06;110205;1242;71173;-77
2023/05/15 06:13:29;;;;;;;;;;;;;;;17.06;41.62;96982.02;110224;1242;70196;-76
2023/05/15 06:15:58;;;;;;;;;;;;;;;17.12;41.92;96977.39;110233;1242;68689;-75
2023/05/15 06:18:27;;;;;;;;;;;;;;;17.30;42.64;96973.73;110200;1242;59750;-76
2023/05/15 06:20:59;;;;;;;;;;;;;;;17.60;41.94;96970.95;110263;1242;59752;-77
2023/05/15 06:23:27;;;;;;;;;;;;;;;17.87;39.09;96963.09;110248;1244;71662;-76
2023/05/15 06:25:57;;;;;;;;;;;;;;;18.26;39.89;96962.20;110201;1245;69146;-76
2023/05/15 06:28:26;;;;;;;;;;;;;;;18.81;39.56;96964.30;110206;1242;69697;-76
2023/05/15 06:30:55;;;;;;;;;;;;;;;19.27;37.44;96960.27;110207;1242;59685;-76
2023/05/15 06:33:24;;;;;;;;;;;;;;;19.77;36.96;96953.66;110236;1242;59688;-76
2023/05/15 06:35:53;;;;;;;;;;;;;;;20.18;35.78;96943.30;110207;1242;71994;-75
2023/05/15 06:38:22;;;;;;;;;;;;;;;20.40;33.80;96935.39;110222;1247;69205;-74
2023/05/15 06:40:50;;;;;;;;;;;;;;;20.42;34.06;96932.27;110199;1242;68539;-75
2023/05/15 06:43:19;;;;;;;;;;;;;;;20.45;33.05;96929.94;110169;1242;59728;-76
2023/05/15 06:45:48;;;;;;;;;;;;;;;20.53;33.25;96925.29;110228;1241;59702;-75
2023/05/15 06:48:17;;;;;;;;;;;;;;;20.58;32.59;96921.98;110217;1242;71957;-75
2023/05/15 06:50:47;;;;;;;;;;;;;;;20.23;31.89;96923.69;110230;1242;69161;-76
2023/05/15 06:53:17;;;;;;;;;;;;;;;20.22;32.43;96924.94;110215;1249;69240;-76
2023/05/15 06:55:46;;;;;;;;;;;;;;;20.45;32.60;96925.33;110228;1241;59734;-76
2023/05/15 06:58:16;;;;;;;;;;;;;;;20.60;32.43;96922.02;110173;1241;59746;-76
2023/05/15 07:00:45;;;;;;;;;;;;;;;20.95;32.83;96919.39;110238;1241;71273;-76
2023/05/15 07:03:15;;;;;;;;;;;;;;;21.20;32.22;96917.52;110233;1242;69961;-76
2023/05/15 07:05:44;;;;;;;;;;;;;;;21.43;32.28;96914.92;110150;1243;69839;-76
2023/05/15 07:08:13;;;;;;;;;;;;;;;21.72;31.76;96914.30;110235;1242;59744;-76
2023/05/15 07:10:42;;;;;;;;;;;;;;;22.07;31.29;96916.13;110192;1241;59661;-75
2023/05/15 07:13:10;;;;;;;;;;;;;;;22.26;30.56;96919.33;110187;1241;70614;-76
2023/05/15 07:15:39;;;;;;;;;;;;;;;22.25;30.60;96910.19;110166;1242;68619;-75
2023/05/15 07:18:08;;;;;;;;;;;;;;;22.58;30.51;96906.45;110209;1241;69690;-76
2023/05/15 07:20:37;;;;;;;;;;;;;;;22.72;29.79;96901.98;110214;1245;59705;-77
2023/05/15 07:23:07;;;;;;;;;;;;;;;23.02;30.21;96905.54;110249;1241;59753;-76
2023/05/15 07:25:36;;;;;;;;;;;;;;;23.15;29.53;96905.60;110235;1241;71945;-76
2023/05/15 07:28:05;;;;;;;;;;;;;;;23.24;28.82;96901.66;110224;1242;69249;-74
2023/05/15 07:30:33;;;;;;;;;;;;;;;23.20;29.28;96905.80;110177;1243;69501;-74
2023/05/15 07:33:03;;;;;;;;;;;;;;;23.24;30.08;96910.56;110198;1241;59687;-74
2023/05/15 07:35:33;;;;;;;;;;;;;;;23.52;29.93;96914.36;110222;1242;59682;-74
2023/05/15 07:38:02;;;;;;;;;;;;;;;23.66;29.62;96915.31;110196;1241;71855;-75
2023/05/15 07:40:31;;;;;;;;;;;;;;;23.85;29.13;96915.33;110212;1242;69286;-75
2023/05/15 07:43:01;;;;;;;;;;;;;;;23.99;28.74;96915.17;110196;1242;69858;-75
2023/05/15 07:45:30;;;;;;;;;;;;;;;24.07;28.52;96914.90;110187;1241;59743;-75
2023/05/15 07:48:11;;;;;;;;;;;;;;;24.04;28.07;96915.33;110285;1242;59697;-74
2023/05/15 07:50:40;;;;;;;;;;;;;;;23.78;27.93;96915.11;110258;1241;71372;-75
2023/05/15 07:53:10;;;;;;;;;;;;;;;23.87;28.40;96913.38;110241;1248;69589;-74
2023/05/15 07:55:40;;;;;;;;;;;;;;;24.01;28.84;96912.46;110225;1241;69255;-75
2023/05/15 07:58:09;;;;;;;;;;;;;;;23.97;28.40;96901.01;110252;1242;59677;-75
2023/05/15 08:00:38;;;;;;;;;;;;;;;23.62;28.26;96903.09;110243;1247;59681;-76
2023/05/15 08:03:07;;;;;;;;;;;;;;;23.47;28.49;96904.98;110250;1241;70645;-73
2023/05/15 08:05:37;;;;;;;;;;;;;;;23.48;29.19;96897.81;110286;1241;69056;-75
2023/05/15 08:08:06;;;;;;;;;;;;;;;23.77;29.20;96899.23;110219;1241;69879;-75
2023/05/15 08:10:35;;;;;;;;;;;;;;;23.81;28.75;96894.50;110229;1242;59661;-75
2023/05/15 08:13:04;;;;;;;;;;;;;;;23.82;28.70;96893.43;110310;1241;59706;-75
2023/05/15 08:15:33;;;;;;;;;;;;;;;24.04;29.36;96883.13;110215;1241;72339;-74
2023/05/15 08:18:07;;;;;;;;;;;;;;;24.18;29.65;96877.66;110245;1241;69900;-75
2023/05/15 08:20:36;;;;;;;;;;;;;;;24.53;29.19;96883.23;110236;1242;69159;-74
2023/05/15 08:23:05;;;;;;;;;;;;;;;24.72;29.03;96886.80;110227;1249;59746;-74
2023/05/15 08:25:35;;;;;;;;;;;;;;;24.93;28.86;96887.31;110243;1242;60119;-74
2023/05/15 08:28:04;;;;;;;;;;;;;;;25.07;28.23;96892.73;110257;1242;71947;-74
2023/05/15 08:30:34;;;;;;;;;;;;;;;25.04;28.10;96899.46;110282;1242;68474;-75
2023/05/15 08:33:03;;;;;;;;;;;;;;;24.93;28.66;96905.64;110214;1242;69074;-75
2023/05/15 08:35:33;;;;;;;;;;;;;;;25.20;28.95;96903.36;110218;1242;59711;-75
2023/05/15 08:38:02;;;;;;;;;;;;;;;25.29;28.38;96899.39;110226;1242;59750;-74
2023/05/15 08:40:31;;;;;;;;;;;;;;;25.23;28.71;96891.30;110251;1242;71811;-75
2023/05/15 08:43:13;;;;;;;;;;;;;;;24.97;29.59;96887.77;110238;1242;69100;-75
2023/05/15 08:45:43;;;;;;;;;;;;;;;25.09;29.76;96887.88;110260;1242;69255;-74
2023/05/15 08:48:21;;;;;;;;;;;;;;;25.29;29.52;96894.38;110210;1242;59708;-75
2023/05/15 08:50:51;;;;;;;;;;;;;;;25.27;29.62;96888.88;110250;1242;59678;-75
2023/05/15 08:53:20;;;;;;;;;;;;;;;25.24;30.20;96891.48;110197;1241;72101;-74
2023/05/15 08:55:49;;;;;;;;;;;;;;;25.05;29.61;96894.39;110247;1241;68832;-74
2023/05/15 08:58:21;;;;;;;;;;;;;;;24.91;29.53;96897.88;110222;1241;69724;-74
2023/05/15 09:00:50;;;;;;;;;;;;;;;24.79;30.00;96894.69;110236;1240;59736;-74
2023/05/15 09:03:21;;;;;;;;;;;;;;;24.76;30.71;96895.88;110260;1243;59679;-74
2023/05/15 09:05:52;;;;;;;;;;;;;;;24.95;31.00;96896.95;110263;1241;72318;-74
2023/05/15 09:08:21;;;;;;;;;;;;;;;25.06;30.90;96896.16;110201;1241;69196;-74
2023/05/15 09:10:52;;;;;;;;;;;;;;;25.14;31.07;96900.57;110239;1242;69830;-74
2023/05/15 09:13:20;;;;;;;;;;;;;;;25.08;31.13;96898.09;110239;1242;59737;-74
2023/05/15 09:15:50;;;;;;;;;;;;;;;24.90;31.36;96896.95;110383;1242;59679;-73
2023/05/15 09:18:19;;;;;;;;;;;;;;;24.79;31.79;96896.83;110282;1242;72016;-73
2023/05/15 09:20:48;;;;;;;;;;;;;;;24.69;31.94;96896.69;110201;1242;68466;-73
2023/05/15 09:23:24;;;;;;;;;;;;;;;24.54;31.97;96891.61;110262;1248;69872;-73
2023/05/15 09:25:55;;;;;;;;;;;;;;;24.35;31.98;96895.70;110195;1242;59731;-73
2023/05/15 09:28:29;;;;;;;;;;;;;;;24.21;32.54;96894.16;110249;1243;59804;-72
2023/05/15 09:31:02;;;;;;;;;;;;;;;24.05;32.84;96895.11;110266;1242;71401;-72
2023/05/15 09:33:31;;;;;;;;;;;;;;;23.75;33.44;96891.18;110292;1241;68559;-71
2023/05/15 09:36:01;;;;;;;;;;;;;;;23.69;33.93;96896.04;110247;1241;69265;-71
2023/05/15 09:38:32;;;;;;;;;;;;;;;23.69;34.20;96893.52;110284;1241;59770;-71
2023/05/15 09:41:02;;;;;;;;;;;;;;;23.60;34.06;96898.24;110293;1242;59687;-72
2023/05/15 09:43:38;;;;;;;;;;;;;;;23.60;34.23;96892.48;110252;1240;71402;-73
2023/05/15 09:46:08;;;;;;;;;;;;;;;23.75;34.45;96881.63;110213;1242;69829;-73
2023/05/15 09:48:37;;;;;;;;;;;;;;;23.82;34.17;96881.09;110221;1242;68597;-72
2023/05/15 09:51:15;;;;;;;;;;;;;;;23.93;34.57;96890.02;110283;1242;59667;-72
2023/05/15 09:53:53;;;;;;;;;;;;;;;24.27;34.46;96890.98;110321;1249;59694;-71
2023/05/15 09:56:23;;;;;;;;;;;;;;;24.63;34.24;96890.35;110237;1240;71950;-71
2023/05/15 09:58:56;;;;;;;;;;;;;;;24.88;33.33;96891.20;110253;1242;69972;-71
2023/05/15 10:01:26;;;;;;;;;;;;;;;24.94;33.91;96891.45;110240;1247;69702;-71
2023/05/15 10:03:58;;;;;;;;;;;;;;;24.82;33.44;96894.80;110295;1242;59734;-70
2023/05/15 10:06:34;;;;;;;;;;;;;;;24.66;33.99;96894.52;110296;1242;59769;-71
2023/05/15 10:09:03;;;;;;;;;;;;;;;24.40;33.97;96891.98;110269;1242;71359;-70
2023/05/15 10:11:34;;;;;;;;;;;;;;;24.17;34.27;96891.47;110275;1240;69439;-71
2023/05/15 10:14:07;;;;;;;;;;;;;;;23.96;34.94;96887.41;110323;1242;69849;-71
2023/05/15 10:16:37;;;;;;;;;;;;;;;23.97;35.61;96886.58;110282;1241;59747;-70
2023/05/15 10:19:08;;;;;;;;;;;;;;;24.12;36.25;96878.58;110279;1242;59740;-70
2023/05/15 10:21:39;;;;;;;;;;;;;;;24.18;35.39;96883.91;110238;1241;72417;-70
2023/05/15 10:24:09;;;;;;;;;;;;;;;24.04;35.49;96876.27;110281;1243;70285;-70
2023/05/15 10:26:39;;;;;;;;;;;;;;;23.97;35.64;96877.84;110218;1242;69856;-70
2023/05/15 10:29:09;;;;;;;;;;;;;;;23.71;36.20;96876.77;110206;1241;59685;-70
2023/05/15 10:31:39;;;;;;;;;;;;;;;23.75;36.10;96879.24;110268;1241;59711;-69
2023/05/15 10:34:09;;;;;;;;;;;;;;;23.84;36.09;96879.69;110217;1242;71050;-70
2023/05/15 10:36:38;;;;;;;;;;;;;;;23.96;36.22;96879.52;110279;1242;68637;-70
2023/05/15 10:39:07;;;;;;;;;;;;;;;24.05;36.41;96881.03;110270;1242;69704;-72
2023/05/15 10:41:37;;;;;;;;;;;;;;;24.28;35.89;96881.61;110216;1243;59709;-71
2023/05/15 10:44:07;;;;;;;;;;;;;;;24.67;35.61;96887.36;110273;1243;59680;-71
2023/05/15 10:46:36;;;;;;;;;;;;;;;24.86;35.16;96881.09;110243;1240;71235;-71
2023/05/15 10:49:05;;;;;;;;;;;;;;;24.96;34.99;96879.80;110219;1241;69734;-71
2023/05/15 10:51:38;;;;;;;;;;;;;;;24.77;36.07;96872.55;110217;1241;69841;-71
2023/05/15 10:54:07;;;;;;;;;;;;;;;24.77;35.64;96869.30;110205;1241;59698;-72
2023/05/15 10:56:38;;;;;;;;;;;;;;;24.82;35.75;96866.88;110223;1242;59689;-71
2023/05/15 10:59:08;;;;;;;;;;;;;;;24.83;35.94;96866.52;110381;1242;71966;-71
2023/05/15 11:01:37;;;;;;;;;;;;;;;24.52;35.97;96866.55;110184;1242;69169;-72
2023/05/15 11:04:09;;;;;;;;;;;;;;;24.41;36.57;96861.38;110326;1241;69188;-72
2023/05/15 11:06:40;;;;;;;;;;;;;;;24.33;37.03;96859.21;110154;1242;59697;-71
2023/05/15 11:09:21;;;;;;;;;;;;;;;24.29;37.31;96853.88;110233;1242;59753;-72
2023/05/15 11:11:56;;;;;;;;;;;;;;;24.22;36.59;96850.08;110206;1241;71207;-70
2023/05/15 11:14:34;;;;;;;;;;;;;;;24.08;36.62;96848.04;110233;1242;68431;-71
2023/05/15 11:17:04;;;;;;;;;;;;;;;24.02;37.21;96845.34;110206;1242;70216;-72
2023/05/15 11:19:35;;;;;;;;;;;;;;;23.99;37.81;96849.38;110339;1241;59709;-71
2023/05/15 11:22:03;;;;;;;;;;;;;;;23.94;38.34;96852.52;110251;1242;59698;-71
2023/05/15 11:24:46;;;;;;;;;;;;;;;24.00;37.75;96853.85;110146;1244;71325;-72
2023/05/15 11:27:22;;;;;;;;;;;;;;;23.92;37.30;96854.52;110226;1240;69811;-71
2023/05/15 11:30:04;;;;;;;;;;;;;;;23.88;37.69;96858.23;110220;1241;69233;-72
2023/05/15 11:32:42;;;;;;;;;;;;;;;24.02;37.38;96861.36;110239;1241;59747;-74
2023/05/15 11:35:21;;;;;;;;;;;;;;;24.11;37.61;96866.84;110186;1242;59694;-75
2023/05/15 11:37:57;;;;;;;;;;;;;;;24.17;37.44;96854.14;110209;1242;71837;-74
2023/05/15 11:40:42;;;;;;;;;;;;;;;24.10;37.85;96855.01;110211;1241;68660;-74
2023/05/15 11:43:20;;;;;;;;;;;;;;;24.00;37.66;96860.43;110349;1240;69148;-74
2023/05/15 11:45:51;;;;;;;;;;;;;;;23.96;37.88;96861.41;110319;1242;59624;-74
2023/05/15 11:48:21;;;;;;;;;;;;;;;23.94;38.68;96871.94;110361;1241;59695;-74
2023/05/15 11:50:52;;;;;;;;;;;;;;;23.87;38.12;96874.17;110204;1241;70951;-74
2023/05/15 11:53:25;;;;;;;;;;;;;;;23.81;38.19;96872.38;110378;1242;69220;-74
2023/05/15 11:55:54;;;;;;;;;;;;;;;23.80;39.19;96870.63;110316;1241;69321;-74
2023/05/15 11:58:23;;;;;;;;;;;;;;;23.72;39.21;96868.33;110340;1242;59705;-74
2023/05/15 12:00:52;;;;;;;;;;;;;;;23.57;39.03;96867.09;110183;1243;59667;-74
2023/05/15 12:03:21;;;;;;;;;;;;;;;23.32;39.31;96867.25;110224;1241;70774;-75
2023/05/15 12:05:52;;;;;;;;;;;;;;;23.11;39.64;96867.78;110229;1242;68356;-74
2023/05/15 12:08:33;;;;;;;;;;;;;;;22.96;40.04;96865.50;110272;1242;70369;-74
2023/05/15 12:11:03;;;;;;;;;;;;;;;22.91;40.28;96866.46;110304;1242;59681;-73
2023/05/15 12:13:33;;;;;;;;;;;;;;;22.92;40.25;96868.29;110303;1242;59679;-75
2023/05/15 12:16:02;;;;;;;;;;;;;;;22.91;40.32;96864.25;110377;1242;72065;-74
2023/05/15 12:18:32;;;;;;;;;;;;;;;22.82;40.75;96864.69;110470;1242;69847;-75
2023/05/15 12:21:04;;;;;;;;;;;;;;;22.81;40.73;96865.23;110496;1241;69737;-74
2023/05/15 12:23:32;;;;;;;;;;;;;;;22.85;40.46;96863.27;110396;1247;59781;-74
2023/05/15 12:26:02;;;;;;;;;;;;;;;22.88;40.96;96858.63;110471;1242;59698;-74
2023/05/15 12:28:34;;;;;;;;;;;;;;;22.92;40.55;96853.12;110429;1247;71301;-74
2023/05/15 12:31:03;;;;;;;;;;;;;;;22.98;41.03;96850.70;110436;1242;68465;-74
2023/05/15 12:33:32;;;;;;;;;;;;;;;22.94;42.29;96847.95;110365;1241;69195;-74
2023/05/15 12:36:01;;;;;;;;;;;;;;;23.00;43.04;96848.98;110249;1241;59664;-74
2023/05/15 12:38:32;;;;;;;;;;;;;;;23.04;42.59;96848.91;110300;1241;59691;-74
2023/05/15 12:41:02;;;;;;;;;;;;;;;23.02;41.43;96851.00;110274;1240;70670;-73
2023/05/15 12:43:30;;;;;;;;;;;;;;;22.98;42.22;96855.83;110271;1240;69199;-74
2023/05/15 12:45:59;;;;;;;;;;;;;;;23.01;43.01;96857.63;110212;1242;69922;-75
2023/05/15 12:48:30;;;;;;;;;;;;;;;22.97;43.64;96859.73;110257;1241;59738;-73
2023/05/15 12:51:08;;;;;;;;;;;;;;;22.98;43.84;96862.05;110241;1242;59679;-73
2023/05/15 12:53:38;;;;;;;;;;;;;;;22.87;43.20;96857.95;110274;1241;71402;-73
2023/05/15 12:56:08;;;;;;;;;;;;;;;22.93;43.48;96856.06;110239;1241;69195;-73